createdAt,value
2023-05-02T00:00:08.712Z,11.88
2023-05-02T00:00:39.884Z,11.88
2023-05-02T00:01:13.464Z,11.88
2023-05-02T00:01:43.854Z,11.88
2023-05-02T00:02:19.755Z,11.88
2023-05-02T00:02:39.809Z,11.88
2023-05-02T00:03:01.640Z,11.88
2023-05-02T00:03:36.016Z,11.88
2023-05-02T00:04:08.173Z,11.88
2023-05-02T00:04:43.577Z,12.00
2023-05-02T00:05:12.551Z,12.00
2023-05-02T00:05:43.926Z,12.00
2023-05-02T00:06:16.062Z,12.00
2023-05-02T00:06:39.317Z,12.00
2023-05-02T00:07:01.542Z,12.00
2023-05-02T00:07:35.849Z,12.00
2023-05-02T00:08:07.921Z,12.00
2023-05-02T00:08:39.942Z,12.00
2023-05-02T00:09:13.117Z,12.00
2023-05-02T00:09:44.231Z,12.00
2023-05-02T00:10:16.309Z,12.00
2023-05-02T00:10:39.410Z,12.00
2023-05-02T00:11:04.267Z,12.00
2023-05-02T00:11:36.394Z,12.00
2023-05-02T00:12:07.992Z,12.00
2023-05-02T00:12:39.913Z,12.00
2023-05-02T00:13:14.485Z,12.00
2023-05-02T00:13:43.948Z,12.00
2023-05-02T00:14:15.998Z,12.00
2023-05-02T00:14:39.081Z,12.00
2023-05-02T00:15:02.241Z,12.00
2023-05-02T00:15:35.850Z,12.00
2023-05-02T00:16:07.999Z,12.00
2023-05-02T00:16:39.869Z,12.00
2023-05-02T00:17:14.208Z,12.00
2023-05-02T00:17:44.073Z,12.00
2023-05-02T00:18:16.007Z,12.00
2023-05-02T00:18:39.204Z,12.00
2023-05-02T00:19:01.347Z,12.00
2023-05-02T00:19:35.802Z,12.00
2023-05-02T00:20:07.812Z,12.00
2023-05-02T00:20:41.441Z,12.00
2023-05-02T00:21:11.908Z,12.00
2023-05-02T00:21:47.301Z,12.00
2023-05-02T00:22:15.870Z,12.00
2023-05-02T00:22:39.141Z,12.00
2023-05-02T00:23:01.265Z,12.00
2023-05-02T00:23:35.981Z,12.00
2023-05-02T00:24:07.946Z,12.00
2023-05-02T00:24:33.928Z,12.00
2023-05-02T00:25:12.355Z,12.00
2023-05-02T00:25:43.914Z,12.00
2023-05-02T00:26:15.079Z,12.00
2023-05-02T00:26:45.254Z,12.00
2023-05-02T00:27:20.040Z,12.00
2023-05-02T00:27:42.696Z,12.00
2023-05-02T00:28:10.535Z,12.00
2023-05-02T00:28:41.172Z,12.00
2023-05-02T00:29:12.426Z,12.00
2023-05-02T00:29:44.021Z,12.00
2023-05-02T00:30:16.010Z,12.00
2023-05-02T00:30:38.620Z,12.00
2023-05-02T00:31:01.369Z,12.00
2023-05-02T00:31:36.218Z,12.00
2023-05-02T00:32:08.017Z,12.00
2023-05-02T00:32:43.596Z,12.00
2023-05-02T00:33:12.064Z,12.00
2023-05-02T00:33:46.619Z,12.00
2023-05-02T00:34:17.381Z,11.88
2023-05-02T00:34:38.445Z,11.88
2023-05-02T00:35:01.430Z,11.88
2023-05-02T00:35:36.057Z,11.88
2023-05-02T00:36:08.545Z,11.88
2023-05-02T00:36:40.938Z,11.88
2023-05-02T00:37:12.793Z,11.88
2023-05-02T00:37:44.163Z,11.88
2023-05-02T00:38:20.910Z,11.88
2023-05-02T00:38:40.031Z,11.88
2023-05-02T00:39:02.612Z,11.88
2023-05-02T00:39:36.532Z,11.88
2023-05-02T00:40:08.182Z,11.88
2023-05-02T00:40:40.565Z,11.88
2023-05-02T00:41:11.916Z,11.88
2023-05-02T00:41:45.785Z,11.88
2023-05-02T00:42:18.313Z,11.88
2023-05-02T00:42:40.483Z,11.88
2023-05-02T00:43:02.143Z,11.88
2023-05-02T00:43:36.397Z,11.88
2023-05-02T00:44:08.808Z,11.77
2023-05-02T00:44:40.177Z,11.77
2023-05-02T00:45:12.405Z,11.77
2023-05-02T00:45:44.082Z,11.77
2023-05-02T00:46:18.662Z,11.77
2023-05-02T00:46:39.432Z,11.77
2023-05-02T00:47:02.024Z,11.77
2023-05-02T00:47:36.221Z,11.77
2023-05-02T00:48:08.088Z,11.77
2023-05-02T00:48:39.885Z,11.72
2023-05-02T00:49:15.418Z,11.72
2023-05-02T00:49:43.862Z,11.72
2023-05-02T00:50:15.898Z,11.72
2023-05-02T00:50:38.660Z,11.72
2023-05-02T00:51:01.092Z,11.72
2023-05-02T00:51:36.835Z,11.72
2023-05-02T00:52:08.504Z,11.72
2023-05-02T00:52:39.794Z,11.72
2023-05-02T00:53:12.875Z,11.72
2023-05-02T00:53:44.293Z,11.72
2023-05-02T00:54:16.488Z,11.61
2023-05-02T00:54:39.301Z,11.61
2023-05-02T00:55:01.853Z,11.61
2023-05-02T00:55:36.052Z,11.61
2023-05-02T00:56:08.075Z,11.61
2023-05-02T00:56:40.701Z,11.61
2023-05-02T00:57:13.659Z,11.50
2023-05-02T00:57:44.280Z,11.50
2023-05-02T00:58:16.074Z,11.50
2023-05-02T00:58:38.764Z,11.50
2023-05-02T00:59:01.393Z,11.50
2023-05-02T00:59:36.438Z,11.50
2023-05-02T01:00:08.476Z,11.50
2023-05-02T01:00:40.052Z,11.50
2023-05-02T01:01:12.025Z,11.50
2023-05-02T01:01:44.344Z,11.38
2023-05-02T01:02:16.731Z,11.38
2023-05-02T01:02:39.650Z,11.38
2023-05-02T01:03:01.736Z,11.38
2023-05-02T01:03:36.155Z,11.38
2023-05-02T01:04:08.560Z,11.38
2023-05-02T01:04:40.731Z,11.38
2023-05-02T01:05:11.989Z,11.38
2023-05-02T01:05:44.664Z,11.38
2023-05-02T01:06:16.538Z,11.38
2023-05-02T01:06:39.217Z,11.38
2023-05-02T01:07:01.892Z,11.38
2023-05-02T01:07:35.815Z,11.27
2023-05-02T01:08:08.186Z,11.27
2023-05-02T01:08:39.735Z,11.27
2023-05-02T01:09:11.974Z,11.38
2023-05-02T01:09:43.920Z,11.38
2023-05-02T01:10:13.428Z,11.38
2023-05-02T01:10:44.680Z,11.38
2023-05-02T01:11:23.725Z,11.38
2023-05-02T01:11:44.560Z,11.38
2023-05-02T01:12:08.316Z,11.38
2023-05-02T01:12:40.239Z,11.38
2023-05-02T01:13:11.853Z,11.38
2023-05-02T01:13:44.310Z,11.38
2023-05-02T01:14:16.326Z,11.38
2023-05-02T01:14:39.350Z,11.38
2023-05-02T01:15:02.686Z,11.38
2023-05-02T01:15:36.261Z,11.38
2023-05-02T01:16:08.731Z,11.38
2023-05-02T01:16:40.377Z,11.38
2023-05-02T01:17:12.468Z,11.38
2023-05-02T01:17:43.901Z,11.38
2023-05-02T01:18:13.270Z,11.38
2023-05-02T01:18:44.681Z,11.38
2023-05-02T01:19:22.892Z,11.38
2023-05-02T01:19:46.787Z,11.38
2023-05-02T01:20:06.052Z,11.38
2023-05-02T01:20:43.527Z,11.38
2023-05-02T01:21:11.804Z,11.38
2023-05-02T01:21:45.050Z,11.38
2023-05-02T01:22:16.087Z,11.38
2023-05-02T01:22:39.054Z,11.38
2023-05-02T01:23:04.963Z,11.38
2023-05-02T01:23:36.385Z,11.38
2023-05-02T01:24:08.410Z,11.38
2023-05-02T01:24:40.258Z,11.38
2023-05-02T01:25:12.180Z,11.38
2023-05-02T01:25:44.054Z,11.38
2023-05-02T01:26:15.963Z,11.38
2023-05-02T01:26:38.702Z,11.38
2023-05-02T01:27:01.777Z,11.38
2023-05-02T01:27:37.355Z,11.38
2023-05-02T01:28:08.220Z,11.38
2023-05-02T01:28:40.689Z,11.38
2023-05-02T01:29:12.282Z,11.27
2023-05-02T01:29:44.135Z,11.27
2023-05-02T01:30:16.077Z,11.27
2023-05-02T01:30:38.631Z,11.27
2023-05-02T01:31:01.092Z,11.27
2023-05-02T01:31:35.876Z,11.27
2023-05-02T01:32:09.493Z,11.27
2023-05-02T01:32:44.200Z,11.27
2023-05-02T01:33:06.634Z,11.27
2023-05-02T01:33:44.035Z,11.27
2023-05-02T01:34:13.097Z,11.27
2023-05-02T01:34:44.693Z,11.27
2023-05-02T01:35:20.098Z,11.27
2023-05-02T01:35:43.237Z,11.27
2023-05-02T01:36:05.508Z,11.27
2023-05-02T01:36:39.886Z,11.27
2023-05-02T01:37:11.924Z,11.27
2023-05-02T01:37:44.068Z,11.27
2023-05-02T01:38:16.075Z,11.27
2023-05-02T01:38:39.120Z,11.27
2023-05-02T01:39:01.147Z,11.27
2023-05-02T01:39:35.767Z,11.27
2023-05-02T01:40:07.835Z,11.27
2023-05-02T01:40:45.362Z,11.27
2023-05-02T01:41:07.814Z,11.27
2023-05-02T01:41:44.676Z,11.27
2023-05-02T01:42:16.038Z,11.27
2023-05-02T01:42:40.296Z,11.27
2023-05-02T01:43:01.921Z,11.27
2023-05-02T01:43:40.356Z,11.27
2023-05-02T01:44:09.157Z,11.27
2023-05-02T01:44:45.510Z,11.27
2023-05-02T01:45:12.715Z,11.27
2023-05-02T01:45:44.023Z,11.27
2023-05-02T01:46:18.021Z,11.27
2023-05-02T01:46:39.225Z,11.27
2023-05-02T01:47:01.662Z,11.27
2023-05-02T01:47:35.940Z,11.27
2023-05-02T01:48:08.524Z,11.27
2023-05-02T01:48:40.985Z,11.27
2023-05-02T01:49:11.735Z,11.27
2023-05-02T01:49:43.912Z,11.27
2023-05-02T01:50:15.970Z,11.27
2023-05-02T01:50:38.593Z,11.27
2023-05-02T01:51:02.027Z,11.27
2023-05-02T01:51:35.786Z,11.27
2023-05-02T01:52:07.860Z,11.22
2023-05-02T01:52:40.855Z,11.22
2023-05-02T01:53:13.624Z,11.22
2023-05-02T01:53:44.156Z,11.22
2023-05-02T01:54:17.788Z,11.22
2023-05-02T01:54:40.056Z,11.22
2023-05-02T01:55:03.632Z,11.22
2023-05-02T01:55:36.283Z,11.22
2023-05-02T01:56:07.834Z,11.22
2023-05-02T01:56:41.233Z,11.22
2023-05-02T01:57:11.958Z,11.22
2023-05-02T01:57:44.626Z,11.22
2023-05-02T01:58:16.115Z,11.22
2023-05-02T01:58:38.863Z,11.22
2023-05-02T01:59:01.124Z,11.22
2023-05-02T01:59:36.601Z,11.22
2023-05-02T02:00:08.819Z,11.22
2023-05-02T02:00:39.929Z,11.22
2023-05-02T02:01:11.814Z,11.22
2023-05-02T02:01:43.963Z,11.22
2023-05-02T02:02:13.225Z,11.22
2023-05-02T02:02:44.769Z,11.22
2023-05-02T02:03:21.126Z,11.22
2023-05-02T02:03:43.623Z,11.22
2023-05-02T02:04:06.486Z,11.22
2023-05-02T02:04:42.710Z,11.22
2023-05-02T02:05:13.499Z,11.22
2023-05-02T02:05:44.108Z,11.22
2023-05-02T02:06:16.116Z,11.22
2023-05-02T02:06:38.852Z,11.22
2023-05-02T02:07:04.621Z,11.22
2023-05-02T02:07:35.911Z,11.22
2023-05-02T02:08:08.070Z,11.11
2023-05-02T02:08:40.197Z,11.11
2023-05-02T02:09:17.887Z,11.11
2023-05-02T02:09:43.887Z,11.11
2023-05-02T02:10:13.078Z,11.11
2023-05-02T02:10:45.080Z,11.11
2023-05-02T02:11:20.230Z,11.11
2023-05-02T02:11:42.844Z,11.11
2023-05-02T02:12:06.735Z,11.11
2023-05-02T02:12:40.050Z,11.11
2023-05-02T02:13:11.965Z,11.11
2023-05-02T02:13:44.152Z,11.11
2023-05-02T02:14:15.908Z,11.11
2023-05-02T02:14:44.793Z,11.11
2023-05-02T02:15:20.384Z,11.11
2023-05-02T02:15:42.501Z,11.11
2023-05-02T02:16:05.373Z,11.11
2023-05-02T02:16:40.253Z,11.11
2023-05-02T02:17:12.243Z,11.11
2023-05-02T02:17:44.180Z,11.11
2023-05-02T02:18:16.207Z,11.11
2023-05-02T02:18:39.003Z,11.11
2023-05-02T02:19:01.299Z,11.11
2023-05-02T02:19:35.961Z,11.11
2023-05-02T02:20:08.709Z,11.11
2023-05-02T02:20:40.226Z,11.11
2023-05-02T02:21:14.517Z,11.11
2023-05-02T02:21:44.533Z,11.11
2023-05-02T02:22:15.972Z,11.11
2023-05-02T02:22:38.636Z,11.11
2023-05-02T02:23:01.481Z,11.11
2023-05-02T02:23:37.705Z,11.11
2023-05-02T02:24:08.091Z,11.11
2023-05-02T02:24:40.400Z,11.11
2023-05-02T02:25:13.387Z,11.11
2023-05-02T02:25:44.254Z,11.11
2023-05-02T02:26:16.466Z,11.11
2023-05-02T02:26:39.476Z,11.11
2023-05-02T02:27:01.690Z,11.11
2023-05-02T02:27:36.103Z,11.11
2023-05-02T02:28:07.914Z,11.11
2023-05-02T02:28:42.950Z,11.11
2023-05-02T02:29:12.629Z,11.11
2023-05-02T02:29:44.214Z,11.11
2023-05-02T02:30:15.898Z,11.11
2023-05-02T02:30:38.611Z,11.11
2023-05-02T02:31:01.654Z,11.00
2023-05-02T02:31:36.053Z,11.00
2023-05-02T02:32:07.715Z,11.00
2023-05-02T02:32:42.238Z,11.00
2023-05-02T02:33:12.735Z,11.00
2023-05-02T02:33:43.995Z,11.00
2023-05-02T02:34:16.283Z,11.00
2023-05-02T02:34:38.713Z,11.00
2023-05-02T02:35:01.338Z,11.00
2023-05-02T02:35:36.296Z,11.00
2023-05-02T02:36:08.133Z,11.00
2023-05-02T02:36:43.520Z,11.00
2023-05-02T02:37:12.111Z,11.00
2023-05-02T02:37:44.859Z,11.00
2023-05-02T02:38:15.871Z,10.88
2023-05-02T02:38:48.567Z,10.88
2023-05-02T02:39:20.252Z,10.88
2023-05-02T02:39:42.694Z,10.88
2023-05-02T02:40:05.086Z,10.88
2023-05-02T02:40:40.019Z,10.88
2023-05-02T02:41:12.616Z,10.88
2023-05-02T02:41:43.849Z,10.88
2023-05-02T02:42:13.143Z,10.88
2023-05-02T02:42:51.655Z,10.88
2023-05-02T02:43:13.954Z,10.88
2023-05-02T02:43:44.638Z,10.88
2023-05-02T02:44:13.404Z,10.88
2023-05-02T02:44:40.144Z,10.88
2023-05-02T02:45:12.126Z,10.88
2023-05-02T02:45:50.057Z,10.88
2023-05-02T02:46:12.317Z,10.88
2023-05-02T02:46:45.007Z,10.88
2023-05-02T02:47:21.287Z,10.88
2023-05-02T02:47:42.734Z,10.88
2023-05-02T02:48:05.149Z,10.77
2023-05-02T02:48:39.824Z,10.77
2023-05-02T02:49:11.642Z,10.77
2023-05-02T02:49:44.189Z,10.77
2023-05-02T02:50:15.670Z,10.77
2023-05-02T02:50:39.165Z,10.77
2023-05-02T02:51:01.533Z,10.77
2023-05-02T02:51:37.097Z,10.77
2023-05-02T02:52:07.743Z,10.77
2023-05-02T02:52:39.767Z,10.77
2023-05-02T02:53:12.174Z,10.77
2023-05-02T02:53:43.937Z,10.77
2023-05-02T02:54:26.399Z,10.77
2023-05-02T02:54:38.700Z,10.77
2023-05-02T02:55:01.466Z,10.77
2023-05-02T02:55:38.256Z,10.77
2023-05-02T02:56:07.875Z,10.77
2023-05-02T02:56:39.686Z,10.77
2023-05-02T02:57:11.770Z,10.77
2023-05-02T02:57:43.756Z,10.72
2023-05-02T02:58:15.814Z,10.72
2023-05-02T02:58:38.707Z,10.72
2023-05-02T02:59:01.252Z,10.72
2023-05-02T02:59:35.917Z,10.72
2023-05-02T03:00:40.054Z,10.72
2023-05-02T03:01:12.947Z,10.72
2023-05-02T03:01:43.780Z,10.72
2023-05-02T03:02:15.589Z,10.72
2023-05-02T03:02:45.027Z,10.72
2023-05-02T03:03:21.391Z,10.72
2023-05-02T03:03:44.311Z,10.72
2023-05-02T03:04:10.780Z,10.72
2023-05-02T03:04:41.100Z,10.72
2023-05-02T03:05:12.513Z,10.72
2023-05-02T03:05:44.659Z,10.72
2023-05-02T03:06:15.846Z,10.72
2023-05-02T03:06:39.931Z,10.72
2023-05-02T03:07:04.233Z,10.72
2023-05-02T03:07:36.176Z,10.72
2023-05-02T03:08:08.107Z,10.72
2023-05-02T03:08:40.401Z,10.72
2023-05-02T03:09:14.871Z,10.61
2023-05-02T03:09:40.158Z,10.61
2023-05-02T03:10:13.210Z,10.61
2023-05-02T03:10:44.877Z,10.61
2023-05-02T03:11:20.018Z,10.61
2023-05-02T03:11:42.657Z,10.61
2023-05-02T03:12:04.986Z,10.61
2023-05-02T03:12:42.392Z,10.61
2023-05-02T03:13:11.930Z,10.61
2023-05-02T03:13:43.991Z,10.61
2023-05-02T03:14:13.039Z,10.61
2023-05-02T03:14:44.716Z,10.61
2023-05-02T03:15:19.771Z,10.61
2023-05-02T03:15:42.605Z,10.61
2023-05-02T03:16:05.021Z,10.61
2023-05-02T03:16:41.803Z,10.61
2023-05-02T03:17:11.737Z,10.61
2023-05-02T03:17:43.780Z,10.61
2023-05-02T03:18:13.093Z,10.61
2023-05-02T03:18:44.730Z,10.61
2023-05-02T03:19:19.740Z,10.61
2023-05-02T03:19:42.542Z,10.61
2023-05-02T03:20:04.740Z,10.61
2023-05-02T03:20:42.227Z,10.61
2023-05-02T03:21:12.009Z,10.61
2023-05-02T03:21:43.771Z,10.61
2023-05-02T03:22:13.128Z,10.61
2023-05-02T03:22:44.831Z,10.61
2023-05-02T03:23:19.800Z,10.61
2023-05-02T03:23:42.768Z,10.61
2023-05-02T03:24:05.145Z,10.61
2023-05-02T03:24:39.871Z,10.61
2023-05-02T03:25:15.144Z,10.61
2023-05-02T03:25:44.468Z,10.61
2023-05-02T03:26:16.079Z,10.61
2023-05-02T03:26:39.653Z,10.61
2023-05-02T03:27:01.921Z,10.61
2023-05-02T03:27:35.861Z,10.61
2023-05-02T03:28:08.232Z,10.61
2023-05-02T03:28:42.105Z,10.61
2023-05-02T03:29:11.702Z,10.61
2023-05-02T03:29:43.611Z,10.61
2023-05-02T03:30:13.256Z,10.61
2023-05-02T03:30:44.679Z,10.61
2023-05-02T03:31:19.737Z,10.61
2023-05-02T03:31:44.029Z,10.61
2023-05-02T03:32:05.087Z,10.61
2023-05-02T03:32:47.532Z,10.61
2023-05-02T03:33:11.814Z,10.61
2023-05-02T03:33:43.969Z,10.61
2023-05-02T03:34:13.016Z,10.61
2023-05-02T03:34:44.840Z,10.61
2023-05-02T03:35:20.149Z,10.61
2023-05-02T03:35:44.295Z,10.61
2023-05-02T03:36:05.087Z,10.61
2023-05-02T03:36:39.606Z,10.61
2023-05-02T03:37:11.639Z,10.61
2023-05-02T03:37:44.692Z,10.61
2023-05-02T03:38:13.483Z,10.61
2023-05-02T03:38:44.711Z,10.61
2023-05-02T03:39:19.655Z,10.61
2023-05-02T03:39:44.728Z,10.61
2023-05-02T03:40:04.677Z,10.61
2023-05-02T03:40:39.813Z,10.61
2023-05-02T03:41:11.796Z,10.61
2023-05-02T03:41:45.146Z,10.61
2023-05-02T03:42:13.034Z,10.61
2023-05-02T03:42:45.453Z,10.61
2023-05-02T03:43:20.007Z,10.61
2023-05-02T03:43:45.273Z,10.61
2023-05-02T03:44:08.799Z,10.61
2023-05-02T03:44:41.157Z,10.61
2023-05-02T03:45:12.231Z,10.61
2023-05-02T03:45:46.994Z,10.61
2023-05-02T03:46:15.789Z,10.61
2023-05-02T03:46:39.088Z,10.61
2023-05-02T03:47:01.477Z,10.61
2023-05-02T03:47:35.834Z,10.50
2023-05-02T03:48:07.865Z,10.61
2023-05-02T03:48:39.729Z,10.61
2023-05-02T03:49:11.805Z,10.61
2023-05-02T03:49:46.265Z,10.61
2023-05-02T03:50:13.160Z,10.61
2023-05-02T03:50:46.712Z,10.61
2023-05-02T03:51:19.679Z,10.61
2023-05-02T03:51:42.834Z,10.61
2023-05-02T03:52:05.090Z,10.61
2023-05-02T03:52:39.730Z,10.61
2023-05-02T03:53:11.736Z,10.61
2023-05-02T03:53:47.319Z,10.61
2023-05-02T03:54:15.633Z,10.61
2023-05-02T03:54:39.309Z,10.61
2023-05-02T03:55:01.762Z,10.61
2023-05-02T03:55:35.748Z,10.61
2023-05-02T03:56:08.261Z,10.61
2023-05-02T03:56:42.779Z,10.61
2023-05-02T03:57:11.698Z,10.61
2023-05-02T03:57:44.023Z,10.61
2023-05-02T03:58:15.985Z,10.61
2023-05-02T03:58:39.217Z,10.61
2023-05-02T03:59:01.690Z,10.61
2023-05-02T03:59:35.875Z,10.61
2023-05-02T04:00:08.001Z,10.61
2023-05-02T04:00:39.895Z,10.61
2023-05-02T04:01:11.625Z,10.61
2023-05-02T04:01:43.779Z,10.61
2023-05-02T04:02:14.689Z,10.61
2023-05-02T04:02:48.516Z,10.61
2023-05-02T04:03:19.832Z,10.61
2023-05-02T04:03:42.397Z,10.61
2023-05-02T04:04:04.906Z,10.61
2023-05-02T04:04:40.284Z,10.61
2023-05-02T04:05:11.717Z,10.61
2023-05-02T04:05:43.572Z,10.61
2023-05-02T04:06:15.632Z,10.61
2023-05-02T04:06:39.324Z,10.61
2023-05-02T04:07:01.718Z,10.61
2023-05-02T04:07:35.835Z,10.61
2023-05-02T04:08:07.589Z,10.61
2023-05-02T04:08:39.735Z,10.61
2023-05-02T04:09:11.599Z,10.61
2023-05-02T04:09:43.791Z,10.61
2023-05-02T04:10:13.080Z,10.61
2023-05-02T04:10:44.796Z,10.61
2023-05-02T04:11:20.066Z,10.50
2023-05-02T04:11:42.706Z,10.50
2023-05-02T04:12:05.328Z,10.50
2023-05-02T04:12:39.863Z,10.50
2023-05-02T04:13:15.335Z,10.50
2023-05-02T04:13:43.804Z,10.50
2023-05-02T04:14:13.035Z,10.50
2023-05-02T04:14:44.790Z,10.50
2023-05-02T04:15:19.811Z,10.50
2023-05-02T04:15:42.548Z,10.50
2023-05-02T04:16:04.916Z,10.50
2023-05-02T04:16:43.189Z,10.50
2023-05-02T04:17:11.898Z,10.50
2023-05-02T04:17:43.749Z,10.50
2023-05-02T04:18:13.178Z,10.50
2023-05-02T04:18:44.894Z,10.50
2023-05-02T04:19:19.719Z,10.50
2023-05-02T04:19:42.491Z,10.50
2023-05-02T04:20:05.507Z,10.50
2023-05-02T04:20:39.848Z,10.50
2023-05-02T04:21:11.964Z,10.50
2023-05-02T04:21:43.755Z,10.50
2023-05-02T04:22:13.245Z,10.50
2023-05-02T04:22:45.087Z,10.50
2023-05-02T04:23:19.929Z,10.50
2023-05-02T04:23:42.638Z,10.50
2023-05-02T04:24:04.968Z,10.50
2023-05-02T04:24:40.090Z,10.50
2023-05-02T04:25:11.638Z,10.50
2023-05-02T04:25:43.752Z,10.50
2023-05-02T04:26:15.586Z,10.50
2023-05-02T04:26:44.845Z,10.50
2023-05-02T04:27:19.718Z,10.50
2023-05-02T04:27:42.873Z,10.50
2023-05-02T04:28:05.409Z,10.50
2023-05-02T04:28:40.071Z,10.50
2023-05-02T04:29:12.237Z,10.50
2023-05-02T04:29:43.885Z,10.50
2023-05-02T04:30:13.153Z,10.50
2023-05-02T04:30:44.811Z,10.50
2023-05-02T04:31:20.385Z,10.50
2023-05-02T04:31:43.127Z,10.50
2023-05-02T04:32:05.427Z,10.50
2023-05-02T04:32:41.192Z,10.50
2023-05-02T04:33:12.004Z,10.50
2023-05-02T04:33:43.569Z,10.50
2023-05-02T04:34:13.077Z,10.50
2023-05-02T04:34:45.073Z,10.50
2023-05-02T04:35:20.270Z,10.38
2023-05-02T04:35:42.662Z,10.38
2023-05-02T04:36:05.131Z,10.38
2023-05-02T04:36:39.781Z,10.38
2023-05-02T04:37:11.820Z,10.38
2023-05-02T04:37:43.679Z,10.38
2023-05-02T04:38:13.263Z,10.38
2023-05-02T04:38:44.855Z,10.38
2023-05-02T04:39:19.799Z,10.38
2023-05-02T04:39:42.723Z,10.38
2023-05-02T04:40:04.953Z,10.38
2023-05-02T04:40:39.597Z,10.38
2023-05-02T04:41:28.029Z,10.38
2023-05-02T04:41:50.574Z,10.38
2023-05-02T04:42:13.053Z,10.38
2023-05-02T04:42:45.553Z,10.38
2023-05-02T04:43:20.300Z,10.38
2023-05-02T04:43:42.639Z,10.38
2023-05-02T04:44:05.222Z,10.38
2023-05-02T04:44:41.625Z,10.38
2023-05-02T04:45:11.808Z,10.38
2023-05-02T04:45:47.462Z,10.38
2023-05-02T04:46:13.735Z,10.38
2023-05-02T04:46:45.740Z,10.38
2023-05-02T04:47:20.592Z,10.38
2023-05-02T04:47:44.602Z,10.38
2023-05-02T04:48:09.736Z,10.27
2023-05-02T04:48:40.254Z,10.38
2023-05-02T04:49:11.939Z,10.38
2023-05-02T04:49:45.238Z,10.27
2023-05-02T04:50:14.999Z,10.27
2023-05-02T04:50:45.576Z,10.27
2023-05-02T04:51:20.749Z,10.27
2023-05-02T04:51:43.125Z,10.27
2023-05-02T04:52:05.574Z,10.27
2023-05-02T04:52:40.096Z,10.27
2023-05-02T04:53:11.952Z,10.27
2023-05-02T04:53:43.946Z,10.27
2023-05-02T04:54:13.226Z,10.27
2023-05-02T04:54:44.902Z,10.27
2023-05-02T04:55:19.687Z,10.27
2023-05-02T04:55:42.468Z,10.27
2023-05-02T04:56:05.544Z,10.27
2023-05-02T04:56:40.184Z,10.27
2023-05-02T04:57:15.612Z,10.27
2023-05-02T04:57:43.838Z,10.27
2023-05-02T04:58:13.423Z,10.27
2023-05-02T04:58:44.837Z,10.27
2023-05-02T04:59:24.316Z,10.27
2023-05-02T04:59:52.993Z,10.27
2023-05-02T05:00:23.836Z,10.27
2023-05-02T05:00:46.739Z,10.27
2023-05-02T05:01:10.272Z,10.22
2023-05-02T05:01:43.875Z,10.22
2023-05-02T05:02:13.380Z,10.22
2023-05-02T05:02:45.460Z,10.22
2023-05-02T05:03:20.016Z,10.22
2023-05-02T05:03:42.655Z,10.22
2023-05-02T05:04:05.792Z,10.22
2023-05-02T05:04:40.323Z,10.22
2023-05-02T05:05:12.445Z,10.22
2023-05-02T05:05:43.817Z,10.22
2023-05-02T05:06:14.079Z,10.22
2023-05-02T05:06:46.566Z,10.22
2023-05-02T05:07:19.795Z,10.22
2023-05-02T05:07:42.434Z,10.22
2023-05-02T05:08:04.827Z,10.22
2023-05-02T05:08:39.970Z,10.22
2023-05-02T05:09:27.881Z,10.27
2023-05-02T05:09:52.033Z,10.27
2023-05-02T05:10:12.978Z,10.27
2023-05-02T05:10:44.767Z,10.27
2023-05-02T05:11:19.733Z,10.27
2023-05-02T05:11:48.412Z,10.27
2023-05-02T05:12:05.329Z,10.27
2023-05-02T05:12:39.595Z,10.27
2023-05-02T05:13:11.964Z,10.27
2023-05-02T05:13:43.752Z,10.27
2023-05-02T05:14:13.215Z,10.27
2023-05-02T05:14:44.889Z,10.27
2023-05-02T05:15:19.867Z,10.27
2023-05-02T05:15:43.456Z,10.27
2023-05-02T05:16:05.797Z,10.27
2023-05-02T05:16:40.086Z,10.27
2023-05-02T05:17:11.819Z,10.27
2023-05-02T05:17:43.927Z,10.27
2023-05-02T05:18:13.120Z,10.27
2023-05-02T05:18:44.777Z,10.38
2023-05-02T05:19:19.965Z,10.27
2023-05-02T05:19:42.713Z,10.27
2023-05-02T05:20:08.323Z,10.38
2023-05-02T05:20:39.741Z,10.38
2023-05-02T05:21:11.687Z,10.38
2023-05-02T05:21:46.119Z,10.38
2023-05-02T05:22:13.217Z,10.38
2023-05-02T05:22:45.436Z,10.38
2023-05-02T05:23:20.120Z,10.38
2023-05-02T05:23:43.510Z,10.38
2023-05-02T05:24:05.913Z,10.38
2023-05-02T05:24:40.531Z,10.38
2023-05-02T05:25:11.991Z,10.38
2023-05-02T05:25:45.584Z,10.38
2023-05-02T05:26:13.841Z,10.38
2023-05-02T05:26:45.688Z,10.38
2023-05-02T05:27:36.253Z,10.38
2023-05-02T05:28:10.503Z,10.38
2023-05-02T05:28:48.634Z,10.38
2023-05-02T05:29:10.951Z,10.38
2023-05-02T05:29:43.583Z,10.38
2023-05-02T05:30:15.701Z,10.38
2023-05-02T05:30:53.132Z,10.38
2023-05-02T05:31:20.189Z,10.38
2023-05-02T05:31:43.313Z,10.38
2023-05-02T05:32:24.200Z,10.38
2023-05-02T05:32:47.042Z,10.38
2023-05-02T05:33:12.175Z,10.38
2023-05-02T05:33:44.284Z,10.38
2023-05-02T05:34:15.777Z,10.38
2023-05-02T05:34:47.808Z,10.38
2023-05-02T05:35:25.177Z,10.38
2023-05-02T05:35:42.354Z,10.38
2023-05-02T05:36:28.213Z,10.38
2023-05-02T05:36:55.658Z,10.38
2023-05-02T05:37:43.733Z,10.38
2023-05-02T05:38:32.168Z,10.38
2023-05-02T05:39:05.195Z,10.38
2023-05-02T05:39:37.236Z,10.50
2023-05-02T05:40:09.550Z,10.50
2023-05-02T05:40:39.770Z,10.50
2023-05-02T05:41:11.821Z,10.50
2023-05-02T05:41:43.741Z,10.50
2023-05-02T05:42:13.285Z,10.50
2023-05-02T05:42:45.054Z,10.50
2023-05-02T05:43:19.781Z,10.50
2023-05-02T05:43:44.499Z,10.50
2023-05-02T05:44:07.209Z,10.50
2023-05-02T05:44:34.088Z,10.50
2023-05-02T05:45:13.544Z,10.50
2023-05-02T05:45:44.553Z,10.50
2023-05-02T05:46:15.600Z,10.50
2023-05-02T05:46:55.552Z,10.38
2023-05-02T05:47:15.484Z,10.38
2023-05-02T05:47:38.763Z,10.38
2023-05-02T05:48:23.752Z,10.38
2023-05-02T05:48:47.357Z,10.38
2023-05-02T05:49:11.348Z,10.38
2023-05-02T05:49:43.732Z,10.38
2023-05-02T05:50:15.607Z,10.38
2023-05-02T05:50:44.871Z,10.38
2023-05-02T05:51:19.854Z,10.27
2023-05-02T05:51:42.622Z,10.22
2023-05-02T05:52:07.448Z,10.22
2023-05-02T05:52:40.153Z,10.11
2023-05-02T05:53:11.829Z,10.11
2023-05-02T05:53:43.845Z,10.11
2023-05-02T05:54:13.158Z,10.11
2023-05-02T05:54:46.344Z,10.11
2023-05-02T05:55:19.692Z,10.00
2023-05-02T05:55:43.582Z,10.00
2023-05-02T05:56:08.474Z,10.00
2023-05-02T05:56:39.654Z,10.00
2023-05-02T05:57:13.083Z,10.00
2023-05-02T05:57:44.260Z,10.00
2023-05-02T05:58:18.213Z,10.00
2023-05-02T05:58:53.022Z,9.88
2023-05-02T05:59:15.631Z,9.88
2023-05-02T05:59:45.330Z,9.88
2023-05-02T06:00:09.255Z,9.88
2023-05-02T06:00:39.744Z,9.88
2023-05-02T06:01:12.033Z,9.88
2023-05-02T06:01:43.634Z,9.88
2023-05-02T06:02:15.724Z,9.77
2023-05-02T06:02:44.938Z,9.77
2023-05-02T06:03:22.205Z,9.77
2023-05-02T06:03:43.013Z,9.77
2023-05-02T06:04:05.765Z,9.77
2023-05-02T06:04:41.258Z,9.77
2023-05-02T06:05:11.600Z,9.77
2023-05-02T06:05:43.706Z,9.77
2023-05-02T06:06:16.847Z,9.77
2023-05-02T06:06:45.046Z,9.77
2023-05-02T06:07:19.708Z,9.77
2023-05-02T06:07:42.506Z,9.77
2023-05-02T06:08:05.132Z,9.77
2023-05-02T06:08:39.629Z,9.77
2023-05-02T06:09:28.141Z,9.77
2023-05-02T06:09:50.947Z,9.77
2023-05-02T06:10:13.496Z,9.77
2023-05-02T06:10:44.914Z,9.77
2023-05-02T06:11:19.647Z,9.88
2023-05-02T06:11:42.417Z,9.88
2023-05-02T06:12:05.426Z,9.77
2023-05-02T06:12:40.013Z,9.77
2023-05-02T06:13:11.771Z,9.77
2023-05-02T06:13:44.160Z,9.77
2023-05-02T06:14:17.865Z,9.77
2023-05-02T06:14:47.415Z,9.77
2023-05-02T06:15:22.861Z,9.88
2023-05-02T06:15:52.226Z,9.88
2023-05-02T06:16:24.629Z,9.88
2023-05-02T06:16:47.230Z,9.88
2023-05-02T06:17:12.523Z,9.88
2023-05-02T06:17:44.259Z,9.88
2023-05-02T06:18:32.004Z,9.88
2023-05-02T06:19:03.759Z,9.88
2023-05-02T06:19:35.758Z,9.88
2023-05-02T06:20:07.702Z,9.88
2023-05-02T06:20:42.141Z,9.88
2023-05-02T06:21:12.990Z,9.88
2023-05-02T06:21:43.742Z,9.88
2023-05-02T06:22:13.192Z,10.00
2023-05-02T06:22:46.283Z,10.00
2023-05-02T06:23:19.897Z,10.00
2023-05-02T06:23:42.667Z,10.00
2023-05-02T06:24:05.019Z,10.00
2023-05-02T06:24:43.057Z,10.00
2023-05-02T06:25:16.977Z,10.00
2023-05-02T06:25:43.564Z,10.00
2023-05-02T06:26:14.115Z,10.00
2023-05-02T06:26:45.488Z,10.00
2023-05-02T06:27:19.660Z,10.00
2023-05-02T06:27:42.715Z,10.00
2023-05-02T06:28:05.258Z,10.00
2023-05-02T06:28:39.546Z,10.00
2023-05-02T06:29:14.777Z,10.00
2023-05-02T06:29:43.651Z,10.00